createdAt,value
2023-09-28T00:03:24.633Z,16.14
2023-09-28T00:07:25.007Z,16.17
2023-09-28T00:11:25.351Z,16.13
2023-09-28T00:15:28.182Z,15.89
2023-09-28T00:19:31.724Z,15.87
2023-09-28T00:23:33.394Z,15.96
2023-09-28T00:27:33.833Z,15.86
2023-09-28T00:31:34.409Z,16.24
2023-09-28T00:35:37.280Z,16.10
2023-09-28T00:39:34.980Z,15.94
2023-09-28T00:43:36.132Z,15.72
2023-09-28T00:47:36.804Z,15.60
2023-09-28T00:51:40.684Z,15.43
2023-09-28T00:55:41.993Z,15.42
2023-09-28T00:59:42.274Z,15.53
2023-09-28T01:03:42.730Z,15.53
2023-09-28T01:07:45.585Z,15.40
2023-09-28T01:11:46.647Z,15.52
2023-09-28T01:15:50.270Z,15.34
2023-09-28T01:19:50.518Z,15.42
2023-09-28T01:23:53.715Z,15.33
2023-09-28T01:27:54.091Z,15.14
2023-09-28T01:31:54.790Z,15.24
2023-09-28T01:35:55.302Z,15.17
2023-09-28T01:39:58.131Z,15.08
2023-09-28T01:43:58.449Z,14.97
2023-09-28T01:47:58.770Z,15.01
2023-09-28T01:51:59.048Z,15.07
2023-09-28T01:56:03.917Z,14.90
2023-09-28T02:00:06.666Z,15.04
2023-09-28T02:04:08.608Z,14.92
2023-09-28T02:08:10.678Z,14.95
2023-09-28T02:12:14.218Z,15.05
2023-09-28T02:16:15.485Z,15.14
2023-09-28T02:20:20.748Z,15.29
2023-09-28T02:24:21.776Z,15.32
2023-09-28T02:28:24.623Z,15.29
2023-09-28T02:32:25.013Z,15.38
2023-09-28T02:36:25.273Z,15.44
2023-09-28T02:40:25.570Z,15.51
2023-09-28T02:44:28.415Z,15.57
2023-09-28T02:48:28.701Z,15.20
2023-09-28T02:52:28.974Z,15.54
2023-09-28T02:56:29.236Z,15.41
2023-09-28T03:00:34.358Z,15.15
2023-09-28T03:04:36.296Z,15.36
2023-09-28T03:08:37.187Z,15.47
2023-09-28T03:12:37.572Z,15.44
2023-09-28T03:16:40.977Z,15.39
2023-09-28T03:20:44.352Z,15.50
2023-09-28T03:24:45.193Z,15.43
2023-09-28T03:28:45.626Z,15.41
2023-09-28T03:32:50.769Z,15.40
2023-09-28T03:36:51.272Z,15.45
2023-09-28T03:40:51.749Z,15.44
2023-09-28T03:44:52.000Z,15.49
2023-09-28T03:48:55.067Z,15.37
2023-09-28T03:52:56.444Z,15.45
2023-09-28T03:56:56.783Z,15.41
2023-09-28T04:00:58.687Z,15.47
2023-09-28T04:05:01.687Z,15.23
2023-09-28T04:09:02.141Z,15.19
2023-09-28T04:13:02.506Z,15.43
2023-09-28T04:17:02.863Z,15.30
2023-09-28T04:21:05.738Z,15.38
2023-09-28T04:25:07.135Z,15.26
2023-09-28T04:29:07.531Z,15.48
2023-09-28T04:33:08.782Z,15.55
2023-09-28T04:37:11.938Z,15.52
2023-09-28T04:41:12.767Z,15.57
2023-09-28T04:45:14.031Z,15.47
2023-09-28T04:49:14.311Z,15.55
2023-09-28T04:53:17.743Z,15.58
2023-09-28T04:57:18.076Z,15.60
2023-09-28T05:01:18.851Z,15.66
2023-09-28T05:05:20.098Z,15.61
2023-09-28T05:09:23.171Z,15.75
2023-09-28T05:13:24.321Z,15.93
2023-09-28T05:17:24.817Z,15.80
2023-09-28T05:21:25.184Z,15.73
2023-09-28T05:25:28.345Z,15.72
2023-09-28T05:29:31.370Z,15.70
2023-09-28T05:33:31.812Z,16.04
2023-09-28T05:37:32.039Z,16.18
2023-09-28T05:41:34.877Z,16.18
2023-09-28T05:45:35.362Z,16.13
2023-09-28T05:49:35.849Z,16.07
2023-09-28T05:53:36.124Z,16.17
2023-09-28T05:57:38.995Z,16.11
2023-09-28T06:01:40.224Z,16.37
2023-09-28T06:05:40.544Z,16.45
2023-09-28T06:09:40.893Z,16.71
2023-09-28T06:17:50.468Z,16.89
2023-09-28T06:21:51.185Z,17.01
2023-09-28T06:25:51.609Z,17.12
2023-09-28T06:29:55.028Z,17.31
2023-09-28T06:33:55.801Z,17.29
2023-09-28T06:37:56.347Z,17.57
2023-09-28T06:42:02.722Z,17.68
2023-09-28T06:46:11.946Z,17.63
2023-09-28T06:50:13.865Z,17.55
2023-09-28T06:54:14.380Z,17.50
2023-09-28T06:58:15.938Z,17.56
2023-09-28T07:02:18.839Z,17.69
2023-09-28T07:06:19.585Z,17.91
2023-09-28T07:10:20.159Z,18.01
2023-09-28T07:14:20.486Z,18.26
2023-09-28T07:18:23.384Z,18.09
2023-09-28T07:22:24.235Z,18.08
2023-09-28T07:26:24.574Z,17.90
2023-09-28T07:30:26.934Z,17.76
2023-09-28T07:34:29.861Z,17.94
2023-09-28T07:38:30.227Z,18.44
2023-09-28T07:42:30.504Z,18.66
2023-09-28T07:46:30.804Z,18.75
2023-09-28T07:50:33.974Z,18.88
2023-09-28T07:54:34.330Z,19.63
2023-09-28T07:58:35.212Z,19.85
2023-09-28T08:02:35.646Z,19.88
2023-09-28T08:06:38.705Z,20.00
2023-09-28T08:10:38.984Z,19.99
2023-09-28T08:14:39.446Z,20.58
2023-09-28T08:18:39.775Z,20.63
2023-09-28T08:22:42.724Z,20.69
2023-09-28T08:26:42.960Z,20.49
2023-09-28T08:30:43.417Z,21.06
2023-09-28T08:34:43.709Z,21.09
2023-09-28T08:38:46.689Z,20.49
2023-09-28T08:42:48.834Z,20.40
2023-09-28T08:46:51.695Z,20.64
2023-09-28T08:51:13.867Z,21.02
2023-09-28T08:55:18.323Z,21.52
2023-09-28T08:59:21.192Z,21.80
2023-09-28T09:03:25.915Z,22.48
2023-09-28T09:07:27.952Z,22.44
2023-09-28T09:11:35.050Z,21.68
2023-09-28T09:15:37.631Z,22.42
2023-09-28T09:19:38.122Z,23.19
2023-09-28T09:23:39.153Z,23.82
2023-09-28T09:27:42.165Z,24.79
2023-09-28T09:31:44.606Z,24.74
2023-09-28T09:35:45.235Z,25.36
2023-09-28T09:39:46.163Z,25.84
2023-09-28T09:43:50.700Z,25.42
2023-09-28T09:47:53.171Z,25.36
2023-09-28T09:51:53.791Z,26.00
2023-09-28T09:56:00.342Z,26.83
2023-09-28T10:00:07.648Z,27.32
2023-09-28T10:04:14.031Z,27.65
2023-09-28T10:08:15.714Z,28.25
2023-09-28T10:12:17.131Z,28.63
2023-09-28T10:16:22.945Z,28.86
2023-09-28T10:20:25.335Z,29.10
2023-09-28T10:24:36.370Z,29.43
2023-09-28T10:28:37.488Z,30.17
2023-09-28T10:32:43.538Z,30.80
2023-09-28T10:36:43.920Z,30.80
2023-09-28T10:40:51.289Z,31.84
2023-09-28T10:44:54.540Z,32.14
2023-09-28T10:49:02.332Z,31.90
2023-09-28T10:53:02.713Z,33.21
2023-09-28T10:57:03.965Z,33.28
2023-09-28T11:01:08.571Z,32.99
2023-09-28T11:05:15.384Z,34.75
2023-09-28T11:09:17.652Z,33.89
2023-09-28T11:13:18.118Z,34.26
2023-09-28T11:17:18.461Z,34.14
2023-09-28T11:21:23.130Z,35.74
2023-09-28T11:25:43.221Z,36.01
2023-09-28T11:29:45.329Z,36.71
2023-09-28T11:33:49.213Z,37.43
2023-09-28T11:37:52.478Z,36.89
2023-09-28T11:42:00.868Z,37.24
2023-09-28T11:46:05.334Z,37.39
2023-09-28T11:50:10.140Z,36.32
2023-09-28T11:54:16.021Z,36.12
2023-09-28T11:58:17.215Z,35.04
2023-09-28T12:02:19.710Z,35.63
2023-09-28T12:06:21.952Z,35.40
2023-09-28T12:10:24.999Z,35.75
2023-09-28T12:14:25.437Z,35.82
2023-09-28T12:18:26.059Z,35.80
2023-09-28T12:22:26.418Z,37.54
2023-09-28T12:26:29.407Z,36.90
2023-09-28T12:30:31.494Z,37.34
2023-09-28T12:34:32.230Z,38.43
2023-09-28T12:38:32.944Z,39.62
2023-09-28T12:42:36.110Z,39.21
2023-09-28T12:46:37.197Z,38.12
2023-09-28T12:50:39.694Z,37.66
2023-09-28T12:54:40.041Z,38.90
2023-09-28T12:58:44.052Z,38.77
2023-09-28T13:02:44.906Z,37.12
2023-09-28T13:06:45.592Z,37.97
2023-09-28T13:10:46.059Z,36.96
2023-09-28T13:14:48.999Z,37.60
2023-09-28T13:18:49.333Z,36.80
2023-09-28T13:22:51.282Z,37.46
2023-09-28T13:26:51.851Z,36.59
2023-09-28T13:30:55.423Z,36.49
2023-09-28T13:34:56.045Z,36.84
2023-09-28T13:38:56.288Z,36.43
2023-09-28T13:42:58.241Z,36.98
2023-09-28T13:47:02.096Z,38.04
2023-09-28T13:51:02.416Z,38.55
2023-09-28T13:55:02.789Z,36.60
2023-09-28T13:59:06.710Z,35.34
2023-09-28T14:03:10.437Z,35.26
2023-09-28T14:07:11.104Z,35.76
2023-09-28T14:11:14.279Z,36.04
2023-09-28T14:15:14.769Z,35.36
2023-09-28T14:19:17.875Z,35.55
2023-09-28T14:23:18.434Z,36.01
2023-09-28T14:27:18.717Z,35.15
2023-09-28T14:31:19.211Z,36.09
2023-09-28T14:35:25.565Z,36.09
2023-09-28T14:39:25.871Z,35.42
2023-09-28T14:43:26.147Z,35.21
2023-09-28T14:47:27.136Z,34.25
2023-09-28T14:51:31.056Z,34.30
2023-09-28T14:55:31.508Z,33.69
2023-09-28T14:59:31.805Z,34.16
2023-09-28T15:03:32.645Z,34.83
2023-09-28T15:07:35.594Z,33.09
2023-09-28T15:11:35.901Z,32.20
2023-09-28T15:15:37.090Z,32.48
2023-09-28T15:19:37.793Z,32.58
2023-09-28T15:23:40.977Z,32.42
2023-09-28T15:27:43.457Z,32.80
2023-09-28T15:31:44.892Z,31.78
2023-09-28T15:35:49.617Z,31.74
2023-09-28T15:39:52.694Z,32.25
2023-09-28T15:43:53.202Z,32.34
2023-09-28T15:47:54.035Z,31.54
2023-09-28T15:51:54.485Z,31.48
2023-09-28T15:55:57.329Z,30.84
2023-09-28T15:59:58.438Z,30.76
2023-09-28T16:03:59.012Z,30.36
2023-09-28T16:08:00.393Z,29.95
2023-09-28T16:12:03.600Z,29.45
2023-09-28T16:16:04.924Z,29.22
2023-09-28T16:20:05.378Z,28.61
2023-09-28T16:24:05.775Z,28.14
2023-09-28T16:28:09.975Z,27.81
2023-09-28T16:32:10.380Z,27.84
2023-09-28T16:36:11.167Z,27.77
2023-09-28T16:40:13.130Z,27.57
2023-09-28T16:44:16.140Z,27.29
2023-09-28T16:48:17.308Z,26.80
2023-09-28T16:52:17.714Z,26.53
2023-09-28T16:56:18.036Z,26.22
2023-09-28T17:00:21.734Z,25.95
2023-09-28T17:04:22.171Z,25.77
2023-09-28T17:08:22.708Z,25.63
2023-09-28T17:12:33.623Z,25.38
2023-09-28T17:16:44.461Z,25.15
2023-09-28T17:20:44.960Z,24.98
2023-09-28T17:24:45.320Z,24.57
2023-09-28T17:28:45.703Z,24.23
2023-09-28T17:32:48.873Z,23.98
2023-09-28T17:36:50.880Z,23.88
2023-09-28T17:40:51.464Z,23.60
2023-09-28T17:44:52.407Z,23.34
2023-09-28T17:48:57.083Z,23.34
2023-09-28T17:52:58.125Z,23.14
2023-09-28T17:56:58.525Z,22.93
2023-09-28T18:01:00.010Z,22.75
2023-09-28T18:05:03.149Z,22.59
2023-09-28T18:09:03.689Z,22.45
2023-09-28T18:13:04.767Z,22.33
2023-09-28T18:17:05.082Z,22.13
2023-09-28T18:21:08.034Z,22.01
2023-09-28T18:25:11.061Z,22.03
2023-09-28T18:29:14.875Z,21.85
2023-09-28T18:33:15.294Z,21.56
2023-09-28T18:37:19.537Z,21.55
2023-09-28T18:41:21.601Z,21.36
2023-09-28T18:45:22.282Z,21.00
2023-09-28T18:49:23.775Z,20.81
2023-09-28T18:53:27.164Z,20.92
2023-09-28T18:57:27.541Z,20.73
2023-09-28T19:01:28.406Z,20.79
2023-09-28T19:05:28.974Z,20.63
2023-09-28T19:09:32.617Z,20.66
2023-09-28T19:13:33.046Z,20.57
2023-09-28T19:17:33.564Z,20.56
2023-09-28T19:21:34.051Z,20.66
2023-09-28T19:25:40.509Z,20.50
2023-09-28T19:29:43.978Z,20.39
2023-09-28T19:33:45.220Z,20.46
2023-09-28T19:37:45.995Z,20.31
2023-09-28T19:41:49.375Z,20.09
2023-09-28T19:45:49.879Z,20.21
2023-09-28T19:49:50.511Z,20.11
2023-09-28T19:53:50.827Z,20.16
2023-09-28T19:57:53.867Z,19.92
2023-09-28T20:01:54.184Z,19.63
2023-09-28T20:05:55.138Z,19.57
2023-09-28T20:09:55.758Z,19.57
2023-09-28T20:13:58.583Z,19.52
2023-09-28T20:17:58.857Z,19.43
2023-09-28T20:21:59.955Z,19.28
2023-09-28T20:26:00.730Z,19.28
2023-09-28T20:30:04.107Z,19.19
2023-09-28T20:34:04.509Z,19.13
2023-09-28T20:38:04.980Z,19.06
2023-09-28T20:42:05.516Z,18.94
2023-09-28T20:46:11.104Z,18.89
2023-09-28T20:50:16.132Z,18.96
2023-09-28T20:54:16.635Z,18.72
2023-09-28T20:58:17.237Z,18.84
2023-09-28T21:02:20.068Z,18.75
2023-09-28T21:06:20.360Z,18.61
2023-09-28T21:10:20.692Z,18.46
2023-09-28T21:14:21.129Z,18.43
2023-09-28T21:18:24.109Z,18.44
2023-09-28T21:22:24.947Z,18.31
2023-09-28T21:26:25.265Z,17.99
2023-09-28T21:30:25.677Z,18.11
2023-09-28T21:34:29.012Z,18.05
2023-09-28T21:38:29.336Z,17.95
2023-09-28T21:42:29.615Z,17.94
2023-09-28T21:46:30.043Z,17.81
2023-09-28T21:50:32.894Z,17.71
2023-09-28T21:54:33.234Z,17.66
2023-09-28T21:58:33.463Z,17.56
2023-09-28T22:02:33.721Z,17.80
2023-09-28T22:06:36.593Z,17.76
2023-09-28T22:10:37.519Z,17.65
2023-09-28T22:14:37.941Z,17.66
2023-09-28T22:18:38.392Z,17.57
2023-09-28T22:22:41.445Z,17.53
2023-09-28T22:26:41.829Z,17.43
2023-09-28T22:30:42.387Z,17.45
2023-09-28T22:34:42.720Z,17.22
2023-09-28T22:38:45.783Z,17.29
2023-09-28T22:42:46.319Z,17.22
2023-09-28T22:46:46.677Z,17.30
2023-09-28T22:50:46.933Z,17.33
2023-09-28T22:54:50.074Z,17.16
2023-09-28T22:58:50.447Z,17.34
2023-09-28T23:02:51.084Z,17.37
2023-09-28T23:06:51.663Z,17.08
2023-09-28T23:10:55.954Z,17.19
2023-09-28T23:14:56.660Z,16.85
2023-09-28T23:18:58.089Z,17.06
2023-09-28T23:22:59.040Z,16.90
2023-09-28T23:27:01.991Z,16.64
2023-09-28T23:31:03.825Z,16.57
2023-09-28T23:35:05.597Z,16.78
2023-09-28T23:39:08.377Z,16.92
2023-09-28T23:43:12.340Z,16.57
2023-09-28T23:47:12.570Z,16.39
2023-09-28T23:51:14.449Z,16.51
2023-09-28T23:55:16.728Z,16.48
2023-09-28T23:59:20.122Z,16.45
